sensor_id;sensor_type;location;lat;lon;timestamp;temperature;humidity
30851;DHT22;17567;48.382;9.102;2022-07-24T01:23:41;18.00;99.90
30851;DHT22;17567;48.382;9.102;2022-07-24T01:28:42;17.90;99.90
30851;DHT22;17567;48.382;9.102;2022-07-24T01:33:43;17.70;99.90
30851;DHT22;17567;48.382;9.102;2022-07-24T01:38:44;17.50;99.90
30851;DHT22;17567;48.382;9.102;2022-07-24T01:43:44;17.50;99.90
30851;DHT22;17567;48.382;9.102;2022-07-24T01:48:45;17.70;99.90
30851;DHT22;17567;48.382;9.102;2022-07-24T01:53:45;17.60;99.90
30851;DHT22;17567;48.382;9.102;2022-07-24T01:58:46;17.50;99.90
30851;DHT22;17567;48.382;9.102;2022-07-24T02:03:47;17.50;99.90
30851;DHT22;17567;48.382;9.102;2022-07-24T02:08:48;17.40;99.90
30851;DHT22;17567;48.382;9.102;2022-07-24T02:13:49;17.30;99.90
30851;DHT22;17567;48.382;9.102;2022-07-24T02:18:50;17.10;99.90
30851;DHT22;17567;48.382;9.102;2022-07-24T02:23:51;17.10;99.90
30851;DHT22;17567;48.382;9.102;2022-07-24T02:28:51;17.10;99.90
30851;DHT22;17567;48.382;9.102;2022-07-24T02:33:52;17.00;99.90
30851;DHT22;17567;48.382;9.102;2022-07-24T02:38:52;17.10;99.90
30851;DHT22;17567;48.382;9.102;2022-07-24T02:43:53;17.00;99.90
30851;DHT22;17567;48.382;9.102;2022-07-24T02:48:54;17.00;99.90
30851;DHT22;17567;48.382;9.102;2022-07-24T02:53:54;17.00;99.90
30851;DHT22;17567;48.382;9.102;2022-07-24T02:58:55;17.20;99.90
30851;DHT22;17567;48.382;9.102;2022-07-24T03:03:55;17.00;99.90
30851;DHT22;17567;48.382;9.102;2022-07-24T03:08:56;16.90;99.90
30851;DHT22;17567;48.382;9.102;2022-07-24T03:13:57;16.90;99.90
30851;DHT22;17567;48.382;9.102;2022-07-24T03:18:57;16.80;99.90
30851;DHT22;17567;48.382;9.102;2022-07-24T03:23:58;16.80;99.90
30851;DHT22;17567;48.382;9.102;2022-07-24T03:28:59;16.70;99.90
30851;DHT22;17567;48.382;9.102;2022-07-24T03:34:00;16.70;99.90
30851;DHT22;17567;48.382;9.102;2022-07-24T03:39:00;16.70;99.90
30851;DHT22;17567;48.382;9.102;2022-07-24T03:44:01;16.70;99.90
30851;DHT22;17567;48.382;9.102;2022-07-24T03:49:02;16.60;99.90
30851;DHT22;17567;48.382;9.102;2022-07-24T03:54:03;16.60;99.90
30851;DHT22;17567;48.382;9.102;2022-07-24T03:59:04;16.50;99.90
30851;DHT22;17567;48.382;9.102;2022-07-24T04:04:04;16.50;99.90
30851;DHT22;17567;48.382;9.102;2022-07-24T04:09:05;16.50;99.90
30851;DHT22;17567;48.382;9.102;2022-07-24T04:14:06;16.50;99.90
30851;DHT22;17567;48.382;9.102;2022-07-24T04:19:07;16.50;99.90
30851;DHT22;17567;48.382;9.102;2022-07-24T04:24:07;16.40;99.90
30851;DHT22;17567;48.382;9.102;2022-07-24T05:09:19;16.70;99.90
30851;DHT22;17567;48.382;9.102;2022-07-24T05:14:20;16.80;99.90
30851;DHT22;17567;48.382;9.102;2022-07-24T05:19:20;16.80;99.90
30851;DHT22;17567;48.382;9.102;2022-07-24T05:24:21;16.90;99.90
30851;DHT22;17567;48.382;9.102;2022-07-24T05:29:21;17.00;99.90
30851;DHT22;17567;48.382;9.102;2022-07-24T05:49:25;17.90;99.90
30851;DHT22;17567;48.382;9.102;2022-07-24T05:54:26;17.90;99.90
30851;DHT22;17567;48.382;9.102;2022-07-24T05:59:26;18.10;99.90
30851;DHT22;17567;48.382;9.102;2022-07-24T06:04:27;18.20;99.90
30851;DHT22;17567;48.382;9.102;2022-07-24T06:09:28;18.40;99.90
30851;DHT22;17567;48.382;9.102;2022-07-24T06:20:26;18.80;99.90
30851;DHT22;17567;48.382;9.102;2022-07-24T06:25:26;19.10;99.90
30851;DHT22;17567;48.382;9.102;2022-07-24T06:30:28;19.30;99.90
30851;DHT22;17567;48.382;9.102;2022-07-24T06:35:28;19.40;99.90
30851;DHT22;17567;48.382;9.102;2022-07-24T06:40:33;19.60;99.90
30851;DHT22;17567;48.382;9.102;2022-07-24T06:45:34;19.80;99.90
30851;DHT22;17567;48.382;9.102;2022-07-24T06:50:36;20.00;99.90
30851;DHT22;17567;48.382;9.102;2022-07-24T06:55:38;20.30;99.90
30851;DHT22;17567;48.382;9.102;2022-07-24T07:00:39;20.50;99.90
30851;DHT22;17567;48.382;9.102;2022-07-24T07:05:40;20.70;99.90
30851;DHT22;17567;48.382;9.102;2022-07-24T07:10:40;20.90;99.90
30851;DHT22;17567;48.382;9.102;2022-07-24T07:15:41;21.20;99.90
30851;DHT22;17567;48.382;9.102;2022-07-24T07:20:42;21.30;99.90
30851;DHT22;17567;48.382;9.102;2022-07-24T07:35:44;22.00;99.90
30851;DHT22;17567;48.382;9.102;2022-07-24T07:40:45;22.20;99.90
30851;DHT22;17567;48.382;9.102;2022-07-24T07:45:46;22.40;99.90
30851;DHT22;17567;48.382;9.102;2022-07-24T07:50:46;22.60;99.90
30851;DHT22;17567;48.382;9.102;2022-07-24T07:55:47;22.80;99.90
30851;DHT22;17567;48.382;9.102;2022-07-24T08:00:51;23.00;99.90
30851;DHT22;17567;48.382;9.102;2022-07-24T08:05:52;23.20;99.90
30851;DHT22;17567;48.382;9.102;2022-07-24T08:10:53;23.50;99.90
30851;DHT22;17567;48.382;9.102;2022-07-24T08:15:54;23.80;99.90
30851;DHT22;17567;48.382;9.102;2022-07-24T08:20:54;24.00;99.90
30851;DHT22;17567;48.382;9.102;2022-07-24T08:25:55;24.30;99.90
30851;DHT22;17567;48.382;9.102;2022-07-24T08:30:56;24.40;99.90
30851;DHT22;17567;48.382;9.102;2022-07-24T08:35:56;24.60;99.90
30851;DHT22;17567;48.382;9.102;2022-07-24T08:40:57;24.90;99.90
30851;DHT22;17567;48.382;9.102;2022-07-24T08:46:00;25.10;99.90
30851;DHT22;17567;48.382;9.102;2022-07-24T08:51:02;25.40;99.90
30851;DHT22;17567;48.382;9.102;2022-07-24T08:56:03;25.80;99.90
30851;DHT22;17567;48.382;9.102;2022-07-24T09:01:04;25.80;99.90
30851;DHT22;17567;48.382;9.102;2022-07-24T09:06:07;26.00;99.90
30851;DHT22;17567;48.382;9.102;2022-07-24T09:16:23;26.80;99.90
30851;DHT22;17567;48.382;9.102;2022-07-24T09:21:24;27.00;99.90
30851;DHT22;17567;48.382;9.102;2022-07-24T09:26:46;27.00;99.90
30851;DHT22;17567;48.382;9.102;2022-07-24T18:38:36;30.10;90.40
30851;DHT22;17567;48.382;9.102;2022-07-24T18:43:37;29.80;90.70
30851;DHT22;17567;48.382;9.102;2022-07-24T18:48:37;29.40;90.80
30851;DHT22;17567;48.382;9.102;2022-07-24T18:53:42;29.10;90.90
30851;DHT22;17567;48.382;9.102;2022-07-24T18:58:43;28.60;99.90
30851;DHT22;17567;48.382;9.102;2022-07-24T19:03:44;28.20;92.60
30851;DHT22;17567;48.382;9.102;2022-07-24T19:08:45;27.80;99.90
30851;DHT22;17567;48.382;9.102;2022-07-24T19:13:46;27.50;94.60
30851;DHT22;17567;48.382;9.102;2022-07-24T19:18:46;26.90;94.20
30851;DHT22;17567;48.382;9.102;2022-07-24T19:29:44;25.80;96.90
30851;DHT22;17567;48.382;9.102;2022-07-24T19:34:45;25.90;97.30
30851;DHT22;17567;48.382;9.102;2022-07-24T19:39:46;25.40;97.70
30851;DHT22;17567;48.382;9.102;2022-07-24T19:50:44;24.30;99.90
30851;DHT22;17567;48.382;9.102;2022-07-24T19:55:44;24.00;99.90
30851;DHT22;17567;48.382;9.102;2022-07-24T20:00:45;24.00;99.90
30851;DHT22;17567;48.382;9.102;2022-07-24T20:05:46;23.70;99.90
30851;DHT22;17567;48.382;9.102;2022-07-24T20:16:44;23.20;99.90
30851;DHT22;17567;48.382;9.102;2022-07-24T20:21:45;23.30;99.90
30851;DHT22;17567;48.382;9.102;2022-07-24T20:26:45;23.00;99.90
30851;DHT22;17567;48.382;9.102;2022-07-24T20:31:46;22.90;99.90
30851;DHT22;17567;48.382;9.102;2022-07-24T20:36:49;22.80;99.90
30851;DHT22;17567;48.382;9.102;2022-07-24T20:41:49;22.60;99.90
30851;DHT22;17567;48.382;9.102;2022-07-24T20:46:50;22.40;99.90
30851;DHT22;17567;48.382;9.102;2022-07-24T20:57:47;22.30;99.90
30851;DHT22;17567;48.382;9.102;2022-07-24T21:02:48;22.20;99.90
30851;DHT22;17567;48.382;9.102;2022-07-24T21:07:49;22.00;99.90
30851;DHT22;17567;48.382;9.102;2022-07-24T21:12:50;21.90;99.90
30851;DHT22;17567;48.382;9.102;2022-07-24T21:17:50;21.70;99.90
30851;DHT22;17567;48.382;9.102;2022-07-24T21:22:51;21.60;99.90
30851;DHT22;17567;48.382;9.102;2022-07-24T21:27:52;21.50;99.90
30851;DHT22;17567;48.382;9.102;2022-07-24T21:32:55;21.10;99.90
30851;DHT22;17567;48.382;9.102;2022-07-24T21:37:56;21.10;99.90
30851;DHT22;17567;48.382;9.102;2022-07-24T21:42:57;21.20;99.90
30851;DHT22;17567;48.382;9.102;2022-07-24T21:47:58;21.10;99.90
30851;DHT22;17567;48.382;9.102;2022-07-24T21:53:02;21.00;99.90
30851;DHT22;17567;48.382;9.102;2022-07-24T21:58:03;20.90;99.90
30851;DHT22;17567;48.382;9.102;2022-07-24T22:03:04;20.80;99.90
30851;DHT22;17567;48.382;9.102;2022-07-24T22:14:02;20.60;99.90
30851;DHT22;17567;48.382;9.102;2022-07-24T22:19:02;20.50;99.90
30851;DHT22;17567;48.382;9.102;2022-07-24T22:24:03;20.50;99.90
30851;DHT22;17567;48.382;9.102;2022-07-24T22:29:04;20.40;99.90
30851;DHT22;17567;48.382;9.102;2022-07-24T22:34:05;20.30;99.90
30851;DHT22;17567;48.382;9.102;2022-07-24T22:39:06;20.30;99.90
30851;DHT22;17567;48.382;9.102;2022-07-24T22:44:07;20.20;99.90
30851;DHT22;17567;48.382;9.102;2022-07-24T22:49:08;20.10;99.90
30851;DHT22;17567;48.382;9.102;2022-07-24T22:54:10;20.20;99.90
30851;DHT22;17567;48.382;9.102;2022-07-24T23:24:20;19.70;99.90
30851;DHT22;17567;48.382;9.102;2022-07-24T23:29:21;19.60;99.90
30851;DHT22;17567;48.382;9.102;2022-07-24T23:34:22;19.50;99.90
30851;DHT22;17567;48.382;9.102;2022-07-24T23:39:22;19.50;99.90
30851;DHT22;17567;48.382;9.102;2022-07-24T23:44:23;19.40;99.90
30851;DHT22;17567;48.382;9.102;2022-07-24T23:49:24;19.30;99.90
30851;DHT22;17567;48.382;9.102;2022-07-24T23:54:25;19.20;99.90
30851;DHT22;17567;48.382;9.102;2022-07-24T23:59:26;19.20;99.90
